Terminal Aerodrome Forecast
Issued by NWS

Home | Current Version | Previous Version | Text Only | Print | Product List | Glossary On
Versions: 1 2 3 4 5 6 7 8 9 10 11 12 13
731
FTUS46 KSEW 262320
TAFHQM
TAF
KHQM 262320Z 2700/2724 24008KT P6SM SCT250
     FM270500 24008KT P6SM BKN008
     FM270700 24010KT 5SM BR OVC004
     FM271900 24012KT P6SM OVC012
     FM272100 24012KT P6SM BKN020=

USA.gov is the U.S. government's official web portal to all federal, state and local government web resources and services.